sensor_id;sensor_type;location;lat;lon;timestamp;temperature;humidity
49242;DHT22;35079;52.704;13.814;2022-07-23T01:25:47;16.20;99.90
49242;DHT22;35079;52.704;13.814;2022-07-23T02:21:30;15.70;99.90
49242;DHT22;35079;52.704;13.814;2022-07-23T02:38:05;15.90;99.90
49242;DHT22;35079;52.704;13.814;2022-07-23T03:08:32;16.00;99.90
49242;DHT22;35079;52.704;13.814;2022-07-23T03:52:38;16.20;99.90
49242;DHT22;35079;52.704;13.814;2022-07-23T03:55:07;16.30;99.90
49242;DHT22;35079;52.704;13.814;2022-07-23T03:57:45;16.30;99.90
49242;DHT22;35079;52.704;13.814;2022-07-23T04:00:20;16.40;99.90
49242;DHT22;35079;52.704;13.814;2022-07-23T04:02:45;16.40;99.90
49242;DHT22;35079;52.704;13.814;2022-07-23T04:05:11;16.50;99.90
49242;DHT22;35079;52.704;13.814;2022-07-23T04:07:37;16.40;99.90
49242;DHT22;35079;52.704;13.814;2022-07-23T04:10:03;16.40;99.90
49242;DHT22;35079;52.704;13.814;2022-07-23T04:12:29;16.40;99.90
49242;DHT22;35079;52.704;13.814;2022-07-23T04:14:55;16.40;99.90
49242;DHT22;35079;52.704;13.814;2022-07-23T04:17:24;16.40;99.90
49242;DHT22;35079;52.704;13.814;2022-07-23T04:19:52;16.40;99.90
49242;DHT22;35079;52.704;13.814;2022-07-23T04:22:20;16.40;99.90
49242;DHT22;35079;52.704;13.814;2022-07-23T04:24:46;16.50;99.90
49242;DHT22;35079;52.704;13.814;2022-07-23T04:30:20;16.50;99.90
49242;DHT22;35079;52.704;13.814;2022-07-23T04:32:45;16.60;99.90
49242;DHT22;35079;52.704;13.814;2022-07-23T04:35:11;16.60;99.90
49242;DHT22;35079;52.704;13.814;2022-07-23T04:37:37;16.60;99.90
49242;DHT22;35079;52.704;13.814;2022-07-23T04:40:15;16.60;99.90
49242;DHT22;35079;52.704;13.814;2022-07-23T04:42:41;16.60;99.90
49242;DHT22;35079;52.704;13.814;2022-07-23T04:45:13;16.60;99.90
49242;DHT22;35079;52.704;13.814;2022-07-23T04:47:48;16.60;99.90
49242;DHT22;35079;52.704;13.814;2022-07-23T04:50:13;16.60;99.90
49242;DHT22;35079;52.704;13.814;2022-07-23T04:52:42;16.60;99.90
49242;DHT22;35079;52.704;13.814;2022-07-23T04:55:08;16.70;99.90
49242;DHT22;35079;52.704;13.814;2022-07-23T04:57:34;16.70;99.90
49242;DHT22;35079;52.704;13.814;2022-07-23T05:00:00;16.70;99.90
49242;DHT22;35079;52.704;13.814;2022-07-23T05:02:25;16.70;99.90
49242;DHT22;35079;52.704;13.814;2022-07-23T05:04:51;16.80;99.90
49242;DHT22;35079;52.704;13.814;2022-07-23T05:07:17;16.80;99.90
49242;DHT22;35079;52.704;13.814;2022-07-23T05:09:43;16.90;99.90
49242;DHT22;35079;52.704;13.814;2022-07-23T05:12:08;16.80;99.90
49242;DHT22;35079;52.704;13.814;2022-07-23T05:14:34;16.80;99.90
49242;DHT22;35079;52.704;13.814;2022-07-23T05:17:00;16.70;99.90
49242;DHT22;35079;52.704;13.814;2022-07-23T05:19:26;16.70;99.90
49242;DHT22;35079;52.704;13.814;2022-07-23T05:49:24;15.40;99.90
49242;DHT22;35079;52.704;13.814;2022-07-23T06:03:12;15.50;99.90
49242;DHT22;35079;52.704;13.814;2022-07-23T06:16:02;15.60;99.90
49242;DHT22;35079;52.704;13.814;2022-07-23T06:18:35;15.50;99.90
49242;DHT22;35079;52.704;13.814;2022-07-23T06:21:43;15.60;99.90
49242;DHT22;35079;52.704;13.814;2022-07-23T06:45:23;15.50;99.90
49242;DHT22;35079;52.704;13.814;2022-07-23T07:35:57;16.00;99.90
49242;DHT22;35079;52.704;13.814;2022-07-23T07:45:32;16.00;99.90
49242;DHT22;35079;52.704;13.814;2022-07-23T07:48:01;16.10;99.90
49242;DHT22;35079;52.704;13.814;2022-07-23T07:50:32;16.10;99.90
49242;DHT22;35079;52.704;13.814;2022-07-23T07:52:58;16.20;99.90
49242;DHT22;35079;52.704;13.814;2022-07-23T07:55:24;16.30;99.90
49242;DHT22;35079;52.704;13.814;2022-07-23T07:57:50;16.30;99.90
49242;DHT22;35079;52.704;13.814;2022-07-23T08:00:16;16.40;99.90
49242;DHT22;35079;52.704;13.814;2022-07-23T08:02:46;16.40;99.90
49242;DHT22;35079;52.704;13.814;2022-07-23T08:05:13;16.50;99.90
49242;DHT22;35079;52.704;13.814;2022-07-23T08:07:39;16.50;99.90
49242;DHT22;35079;52.704;13.814;2022-07-23T08:10:07;16.60;99.90
49242;DHT22;35079;52.704;13.814;2022-07-23T08:12:47;16.70;99.90
49242;DHT22;35079;52.704;13.814;2022-07-23T08:15:15;16.90;99.90
49242;DHT22;35079;52.704;13.814;2022-07-23T08:17:42;17.00;99.90
49242;DHT22;35079;52.704;13.814;2022-07-23T08:20:10;17.00;99.90
49242;DHT22;35079;52.704;13.814;2022-07-23T08:22:56;17.00;99.90
49242;DHT22;35079;52.704;13.814;2022-07-23T08:25:34;17.10;99.90
49242;DHT22;35079;52.704;13.814;2022-07-23T08:28:04;17.10;99.90
49242;DHT22;35079;52.704;13.814;2022-07-23T08:30:31;17.10;99.90
49242;DHT22;35079;52.704;13.814;2022-07-23T08:32:59;17.10;99.90
49242;DHT22;35079;52.704;13.814;2022-07-23T08:35:40;17.20;99.90
49242;DHT22;35079;52.704;13.814;2022-07-23T08:38:10;17.20;99.90
49242;DHT22;35079;52.704;13.814;2022-07-23T08:40:39;17.40;99.90
49242;DHT22;35079;52.704;13.814;2022-07-23T08:43:10;17.60;99.90
49242;DHT22;35079;52.704;13.814;2022-07-23T08:45:43;17.80;99.90
49242;DHT22;35079;52.704;13.814;2022-07-23T08:48:15;17.90;99.90
49242;DHT22;35079;52.704;13.814;2022-07-23T08:50:49;17.90;99.90
49242;DHT22;35079;52.704;13.814;2022-07-23T08:53:16;17.90;99.90
49242;DHT22;35079;52.704;13.814;2022-07-23T08:55:47;17.90;99.90
49242;DHT22;35079;52.704;13.814;2022-07-23T08:58:13;17.90;99.90
49242;DHT22;35079;52.704;13.814;2022-07-23T09:00:40;18.10;99.90
49242;DHT22;35079;52.704;13.814;2022-07-23T09:03:05;18.30;99.90
49242;DHT22;35079;52.704;13.814;2022-07-23T09:05:31;18.50;99.90
49242;DHT22;35079;52.704;13.814;2022-07-23T09:10:44;18.90;99.90
49242;DHT22;35079;52.704;13.814;2022-07-23T09:15:49;19.40;99.90
49242;DHT22;35079;52.704;13.814;2022-07-23T09:18:16;19.80;99.90
49242;DHT22;35079;52.704;13.814;2022-07-23T09:26:59;20.40;99.90
49242;DHT22;35079;52.704;13.814;2022-07-23T09:29:26;20.80;99.90
49242;DHT22;35079;52.704;13.814;2022-07-23T09:31:56;21.10;99.90
49242;DHT22;35079;52.704;13.814;2022-07-23T09:34:31;21.40;99.90
49242;DHT22;35079;52.704;13.814;2022-07-23T09:37:12;21.80;99.90
49242;DHT22;35079;52.704;13.814;2022-07-23T09:39:39;22.20;99.90
49242;DHT22;35079;52.704;13.814;2022-07-23T09:42:18;22.70;99.90
49242;DHT22;35079;52.704;13.814;2022-07-23T09:44:46;22.50;99.90
49242;DHT22;35079;52.704;13.814;2022-07-23T09:47:12;22.40;99.90
49242;DHT22;35079;52.704;13.814;2022-07-23T09:49:38;22.20;99.90
49242;DHT22;35079;52.704;13.814;2022-07-23T09:52:04;22.20;99.90
49242;DHT22;35079;52.704;13.814;2022-07-23T09:54:38;22.30;99.90
49242;DHT22;35079;52.704;13.814;2022-07-23T09:57:06;22.30;99.90
49242;DHT22;35079;52.704;13.814;2022-07-23T09:59:37;22.30;99.90
49242;DHT22;35079;52.704;13.814;2022-07-23T10:02:05;22.60;99.90
49242;DHT22;35079;52.704;13.814;2022-07-23T10:04:31;22.70;99.90
49242;DHT22;35079;52.704;13.814;2022-07-23T10:07:00;22.90;99.90
49242;DHT22;35079;52.704;13.814;2022-07-23T10:12:04;22.50;99.90
49242;DHT22;35079;52.704;13.814;2022-07-23T10:14:49;22.40;99.90
49242;DHT22;35079;52.704;13.814;2022-07-23T10:17:15;22.30;99.90
49242;DHT22;35079;52.704;13.814;2022-07-23T10:19:41;22.30;99.90
49242;DHT22;35079;52.704;13.814;2022-07-23T10:22:12;22.80;99.90
49242;DHT22;35079;52.704;13.814;2022-07-23T10:25:04;23.30;99.90
49242;DHT22;35079;52.704;13.814;2022-07-23T10:30:19;23.80;99.90
49242;DHT22;35079;52.704;13.814;2022-07-23T10:36:07;23.40;99.90
49242;DHT22;35079;52.704;13.814;2022-07-23T10:38:41;23.50;99.90
49242;DHT22;35079;52.704;13.814;2022-07-23T10:41:08;23.50;99.90
49242;DHT22;35079;52.704;13.814;2022-07-23T10:43:34;23.90;99.90
49242;DHT22;35079;52.704;13.814;2022-07-23T10:46:22;24.10;99.50
49242;DHT22;35079;52.704;13.814;2022-07-23T10:49:33;23.80;99.90
49242;DHT22;35079;52.704;13.814;2022-07-23T10:57:11;22.90;99.90
49242;DHT22;35079;52.704;13.814;2022-07-23T11:02:47;22.80;99.90
49242;DHT22;35079;52.704;13.814;2022-07-23T11:05:18;22.90;99.90
49242;DHT22;35079;52.704;13.814;2022-07-23T11:11:24;23.70;99.90
49242;DHT22;35079;52.704;13.814;2022-07-23T11:26:48;27.20;91.50
49242;DHT22;35079;52.704;13.814;2022-07-23T11:34:31;26.90;92.90
49242;DHT22;35079;52.704;13.814;2022-07-23T11:36:57;27.40;90.90
49242;DHT22;35079;52.704;13.814;2022-07-23T11:39:25;27.70;89.70
49242;DHT22;35079;52.704;13.814;2022-07-23T11:41:52;27.90;87.70
49242;DHT22;35079;52.704;13.814;2022-07-23T11:44:25;28.20;88.20
49242;DHT22;35079;52.704;13.814;2022-07-23T11:46:58;27.90;83.00
49242;DHT22;35079;52.704;13.814;2022-07-23T11:49:25;27.20;83.50
49242;DHT22;35079;52.704;13.814;2022-07-23T11:52:10;26.50;84.10
49242;DHT22;35079;52.704;13.814;2022-07-23T11:55:00;26.10;90.00
49242;DHT22;35079;52.704;13.814;2022-07-23T11:57:32;26.80;87.00
49242;DHT22;35079;52.704;13.814;2022-07-23T12:00:23;26.80;84.00
49242;DHT22;35079;52.704;13.814;2022-07-23T12:02:51;26.90;87.00
49242;DHT22;35079;52.704;13.814;2022-07-23T12:05:20;27.10;79.20
49242;DHT22;35079;52.704;13.814;2022-07-23T12:07:47;27.00;81.30
49242;DHT22;35079;52.704;13.814;2022-07-23T12:10:21;26.80;83.00
49242;DHT22;35079;52.704;13.814;2022-07-23T12:15:21;26.10;83.00
49242;DHT22;35079;52.704;13.814;2022-07-23T12:17:49;26.00;85.50
49242;DHT22;35079;52.704;13.814;2022-07-23T12:20:18;25.50;87.40
49242;DHT22;35079;52.704;13.814;2022-07-23T12:22:47;25.90;86.80
49242;DHT22;35079;52.704;13.814;2022-07-23T12:25:15;26.10;86.00
49242;DHT22;35079;52.704;13.814;2022-07-23T12:27:42;26.20;81.80
49242;DHT22;35079;52.704;13.814;2022-07-23T12:30:26;25.80;86.00
49242;DHT22;35079;52.704;13.814;2022-07-23T12:32:54;25.30;82.40
49242;DHT22;35079;52.704;13.814;2022-07-23T12:35:21;25.10;84.30
49242;DHT22;35079;52.704;13.814;2022-07-23T12:37:48;24.90;87.80
49242;DHT22;35079;52.704;13.814;2022-07-23T12:40:41;25.40;86.30
49242;DHT22;35079;52.704;13.814;2022-07-23T12:48:38;26.00;81.80
49242;DHT22;35079;52.704;13.814;2022-07-23T12:53:40;26.60;79.80
49242;DHT22;35079;52.704;13.814;2022-07-23T12:56:18;26.90;79.60
49242;DHT22;35079;52.704;13.814;2022-07-23T12:58:51;26.50;79.00
49242;DHT22;35079;52.704;13.814;2022-07-23T13:03:56;25.90;80.30
49242;DHT22;35079;52.704;13.814;2022-07-23T13:06:23;25.40;80.10
49242;DHT22;35079;52.704;13.814;2022-07-23T13:08:48;25.00;81.10
49242;DHT22;35079;52.704;13.814;2022-07-23T13:11:14;24.80;81.90
49242;DHT22;35079;52.704;13.814;2022-07-23T13:13:41;24.50;81.70
49242;DHT22;35079;52.704;13.814;2022-07-23T13:16:07;24.40;85.10
49242;DHT22;35079;52.704;13.814;2022-07-23T13:18:32;24.20;86.00
49242;DHT22;35079;52.704;13.814;2022-07-23T13:20:58;24.20;85.20
49242;DHT22;35079;52.704;13.814;2022-07-23T13:23:24;24.20;85.80
49242;DHT22;35079;52.704;13.814;2022-07-23T13:25:50;24.50;86.70
49242;DHT22;35079;52.704;13.814;2022-07-23T13:28:17;24.90;86.40
49242;DHT22;35079;52.704;13.814;2022-07-23T13:30:44;25.50;86.10
49242;DHT22;35079;52.704;13.814;2022-07-23T13:33:10;26.00;81.70
49242;DHT22;35079;52.704;13.814;2022-07-23T13:35:36;26.50;81.80
49242;DHT22;35079;52.704;13.814;2022-07-23T13:38:04;26.60;79.80
49242;DHT22;35079;52.704;13.814;2022-07-23T13:40:30;26.50;81.10
49242;DHT22;35079;52.704;13.814;2022-07-23T13:42:56;26.00;81.80
49242;DHT22;35079;52.704;13.814;2022-07-23T13:45:21;25.90;83.00
49242;DHT22;35079;52.704;13.814;2022-07-23T13:47:47;25.90;80.10
49242;DHT22;35079;52.704;13.814;2022-07-23T13:50:13;25.60;82.60
49242;DHT22;35079;52.704;13.814;2022-07-23T13:52:41;25.50;80.30
49242;DHT22;35079;52.704;13.814;2022-07-23T13:55:07;25.20;81.90
49242;DHT22;35079;52.704;13.814;2022-07-23T13:57:33;25.20;83.90
49242;DHT22;35079;52.704;13.814;2022-07-23T13:59:59;25.30;82.80
49242;DHT22;35079;52.704;13.814;2022-07-23T14:02:25;25.40;84.20
49242;DHT22;35079;52.704;13.814;2022-07-23T14:04:51;25.30;79.60
49242;DHT22;35079;52.704;13.814;2022-07-23T14:07:17;25.00;79.20
49242;DHT22;35079;52.704;13.814;2022-07-23T14:09:44;25.10;81.60
49242;DHT22;35079;52.704;13.814;2022-07-23T14:12:10;24.70;83.00
49242;DHT22;35079;52.704;13.814;2022-07-23T14:14:36;24.60;85.40
49242;DHT22;35079;52.704;13.814;2022-07-23T14:17:02;24.50;83.40
49242;DHT22;35079;52.704;13.814;2022-07-23T14:19:28;24.50;80.80
49242;DHT22;35079;52.704;13.814;2022-07-23T14:21:54;24.50;82.50
49242;DHT22;35079;52.704;13.814;2022-07-23T14:24:19;24.40;79.90
49242;DHT22;35079;52.704;13.814;2022-07-23T14:26:45;24.30;84.70
49242;DHT22;35079;52.704;13.814;2022-07-23T14:29:11;24.40;84.70
49242;DHT22;35079;52.704;13.814;2022-07-23T14:31:37;24.40;80.00
49242;DHT22;35079;52.704;13.814;2022-07-23T14:34:03;24.30;81.20
49242;DHT22;35079;52.704;13.814;2022-07-23T14:36:29;24.50;83.70
49242;DHT22;35079;52.704;13.814;2022-07-23T14:38:55;24.70;80.50
49242;DHT22;35079;52.704;13.814;2022-07-23T14:41:20;24.90;79.70
49242;DHT22;35079;52.704;13.814;2022-07-23T14:43:46;24.90;82.80
49242;DHT22;35079;52.704;13.814;2022-07-23T14:46:12;24.80;82.20
49242;DHT22;35079;52.704;13.814;2022-07-23T14:48:38;24.80;81.20
49242;DHT22;35079;52.704;13.814;2022-07-23T14:51:04;24.90;82.10
49242;DHT22;35079;52.704;13.814;2022-07-23T14:53:29;25.00;80.90
49242;DHT22;35079;52.704;13.814;2022-07-23T14:55:55;24.90;78.70
49242;DHT22;35079;52.704;13.814;2022-07-23T14:58:23;24.90;78.50
49242;DHT22;35079;52.704;13.814;2022-07-23T15:00:49;24.70;77.90
49242;DHT22;35079;52.704;13.814;2022-07-23T15:03:14;24.70;78.70
49242;DHT22;35079;52.704;13.814;2022-07-23T15:05:41;24.50;77.20
49242;DHT22;35079;52.704;13.814;2022-07-23T15:08:06;24.50;76.70
49242;DHT22;35079;52.704;13.814;2022-07-23T15:10:32;24.30;76.60
49242;DHT22;35079;52.704;13.814;2022-07-23T15:12:57;24.40;76.90
49242;DHT22;35079;52.704;13.814;2022-07-23T15:15:23;24.40;77.70
49242;DHT22;35079;52.704;13.814;2022-07-23T15:17:49;24.40;79.60
49242;DHT22;35079;52.704;13.814;2022-07-23T15:20:17;24.30;76.10
49242;DHT22;35079;52.704;13.814;2022-07-23T15:22:43;24.10;77.70
49242;DHT22;35079;52.704;13.814;2022-07-23T15:25:10;24.10;77.40
49242;DHT22;35079;52.704;13.814;2022-07-23T15:27:36;23.80;80.40
49242;DHT22;35079;52.704;13.814;2022-07-23T15:30:03;23.80;77.90
49242;DHT22;35079;52.704;13.814;2022-07-23T15:32:29;23.90;78.90
49242;DHT22;35079;52.704;13.814;2022-07-23T15:34:54;23.90;80.70
49242;DHT22;35079;52.704;13.814;2022-07-23T15:37:21;23.90;77.20
49242;DHT22;35079;52.704;13.814;2022-07-23T15:39:48;23.90;77.80
49242;DHT22;35079;52.704;13.814;2022-07-23T15:42:16;24.10;75.60
49242;DHT22;35079;52.704;13.814;2022-07-23T15:44:42;23.90;75.90
49242;DHT22;35079;52.704;13.814;2022-07-23T15:47:15;23.90;75.70
49242;DHT22;35079;52.704;13.814;2022-07-23T15:49:41;24.00;76.50
49242;DHT22;35079;52.704;13.814;2022-07-23T15:52:07;23.90;73.00
49242;DHT22;35079;52.704;13.814;2022-07-23T15:54:35;23.70;73.90
49242;DHT22;35079;52.704;13.814;2022-07-23T15:57:02;23.70;73.60
49242;DHT22;35079;52.704;13.814;2022-07-23T15:59:29;23.70;72.50
49242;DHT22;35079;52.704;13.814;2022-07-23T16:01:55;23.60;75.10
49242;DHT22;35079;52.704;13.814;2022-07-23T16:04:20;23.60;73.30
49242;DHT22;35079;52.704;13.814;2022-07-23T16:06:46;23.70;74.00
49242;DHT22;35079;52.704;13.814;2022-07-23T16:09:12;23.60;75.00
49242;DHT22;35079;52.704;13.814;2022-07-23T16:11:38;23.60;73.90
49242;DHT22;35079;52.704;13.814;2022-07-23T16:14:03;23.60;73.60
49242;DHT22;35079;52.704;13.814;2022-07-23T16:16:29;23.60;71.90
49242;DHT22;35079;52.704;13.814;2022-07-23T16:18:55;23.40;72.70
49242;DHT22;35079;52.704;13.814;2022-07-23T16:21:21;23.30;73.30
49242;DHT22;35079;52.704;13.814;2022-07-23T16:23:47;23.30;72.60
49242;DHT22;35079;52.704;13.814;2022-07-23T16:26:13;23.30;72.20
49242;DHT22;35079;52.704;13.814;2022-07-23T16:28:39;23.20;73.60
49242;DHT22;35079;52.704;13.814;2022-07-23T16:31:05;23.30;74.90
49242;DHT22;35079;52.704;13.814;2022-07-23T16:33:31;23.30;74.90
49242;DHT22;35079;52.704;13.814;2022-07-23T16:35:57;23.20;73.90
49242;DHT22;35079;52.704;13.814;2022-07-23T16:38:22;23.10;71.30
49242;DHT22;35079;52.704;13.814;2022-07-23T16:40:50;23.10;72.20
49242;DHT22;35079;52.704;13.814;2022-07-23T16:43:16;23.10;75.60
49242;DHT22;35079;52.704;13.814;2022-07-23T16:45:43;23.00;73.10
49242;DHT22;35079;52.704;13.814;2022-07-23T16:48:09;23.00;73.60
49242;DHT22;35079;52.704;13.814;2022-07-23T16:50:35;23.10;74.50
49242;DHT22;35079;52.704;13.814;2022-07-23T16:53:00;23.00;72.80
49242;DHT22;35079;52.704;13.814;2022-07-23T16:55:26;23.00;72.30
49242;DHT22;35079;52.704;13.814;2022-07-23T16:57:52;23.10;74.90
49242;DHT22;35079;52.704;13.814;2022-07-23T17:00:17;23.00;71.80
49242;DHT22;35079;52.704;13.814;2022-07-23T17:02:43;23.00;73.60
49242;DHT22;35079;52.704;13.814;2022-07-23T17:05:09;23.10;74.30
49242;DHT22;35079;52.704;13.814;2022-07-23T17:07:36;23.20;72.60
49242;DHT22;35079;52.704;13.814;2022-07-23T17:10:04;23.10;73.70
49242;DHT22;35079;52.704;13.814;2022-07-23T17:12:30;23.10;74.10
49242;DHT22;35079;52.704;13.814;2022-07-23T17:14:56;23.00;71.70
49242;DHT22;35079;52.704;13.814;2022-07-23T17:17:22;23.00;73.60
49242;DHT22;35079;52.704;13.814;2022-07-23T17:19:48;22.90;74.70
49242;DHT22;35079;52.704;13.814;2022-07-23T17:22:13;22.80;75.20
49242;DHT22;35079;52.704;13.814;2022-07-23T17:24:39;22.60;76.70
49242;DHT22;35079;52.704;13.814;2022-07-23T17:27:05;22.40;78.30
49242;DHT22;35079;52.704;13.814;2022-07-23T17:29:30;22.50;74.30
49242;DHT22;35079;52.704;13.814;2022-07-23T17:31:56;22.50;75.70
49242;DHT22;35079;52.704;13.814;2022-07-23T17:34:22;22.30;75.80
49242;DHT22;35079;52.704;13.814;2022-07-23T17:36:47;22.20;73.20
49242;DHT22;35079;52.704;13.814;2022-07-23T17:39:17;22.20;72.60
49242;DHT22;35079;52.704;13.814;2022-07-23T17:41:43;22.20;71.80
49242;DHT22;35079;52.704;13.814;2022-07-23T17:44:13;22.20;73.40
49242;DHT22;35079;52.704;13.814;2022-07-23T17:46:39;22.20;73.00
49242;DHT22;35079;52.704;13.814;2022-07-23T17:49:05;22.20;73.50
49242;DHT22;35079;52.704;13.814;2022-07-23T17:51:30;22.20;71.50
49242;DHT22;35079;52.704;13.814;2022-07-23T17:53:57;22.20;71.80
49242;DHT22;35079;52.704;13.814;2022-07-23T17:56:23;22.40;72.30
49242;DHT22;35079;52.704;13.814;2022-07-23T17:58:48;22.30;71.90
49242;DHT22;35079;52.704;13.814;2022-07-23T18:01:14;22.30;71.00
49242;DHT22;35079;52.704;13.814;2022-07-23T18:03:43;22.10;73.00
49242;DHT22;35079;52.704;13.814;2022-07-23T18:06:12;22.00;71.40
49242;DHT22;35079;52.704;13.814;2022-07-23T18:08:50;21.90;72.50
49242;DHT22;35079;52.704;13.814;2022-07-23T18:11:16;21.80;75.30
49242;DHT22;35079;52.704;13.814;2022-07-23T18:13:42;21.70;74.90
49242;DHT22;35079;52.704;13.814;2022-07-23T18:16:16;21.70;72.80
49242;DHT22;35079;52.704;13.814;2022-07-23T18:18:43;21.70;74.40
49242;DHT22;35079;52.704;13.814;2022-07-23T18:21:08;21.60;75.70
49242;DHT22;35079;52.704;13.814;2022-07-23T18:23:34;21.30;78.40
49242;DHT22;35079;52.704;13.814;2022-07-23T18:29:00;21.20;76.00
49242;DHT22;35079;52.704;13.814;2022-07-23T18:31:26;21.20;78.40
49242;DHT22;35079;52.704;13.814;2022-07-23T18:40:11;20.80;80.30
49242;DHT22;35079;52.704;13.814;2022-07-23T18:42:56;20.80;80.40
49242;DHT22;35079;52.704;13.814;2022-07-23T18:48:17;20.70;81.50
49242;DHT22;35079;52.704;13.814;2022-07-23T18:50:47;20.60;81.90
49242;DHT22;35079;52.704;13.814;2022-07-23T18:53:16;20.40;83.80
49242;DHT22;35079;52.704;13.814;2022-07-23T18:55:42;20.40;84.00
49242;DHT22;35079;52.704;13.814;2022-07-23T18:58:08;20.20;85.20
49242;DHT22;35079;52.704;13.814;2022-07-23T19:00:35;20.10;79.50
49242;DHT22;35079;52.704;13.814;2022-07-23T19:03:01;20.10;80.90
49242;DHT22;35079;52.704;13.814;2022-07-23T19:05:47;20.10;83.20
49242;DHT22;35079;52.704;13.814;2022-07-23T19:08:13;20.00;82.80
49242;DHT22;35079;52.704;13.814;2022-07-23T19:10:39;20.00;82.60
49242;DHT22;35079;52.704;13.814;2022-07-23T19:13:05;19.90;83.20
49242;DHT22;35079;52.704;13.814;2022-07-23T19:15:32;19.90;83.40
49242;DHT22;35079;52.704;13.814;2022-07-23T19:17:58;19.70;86.00
49242;DHT22;35079;52.704;13.814;2022-07-23T19:20:24;19.60;87.40
49242;DHT22;35079;52.704;13.814;2022-07-23T19:22:49;19.50;87.10
49242;DHT22;35079;52.704;13.814;2022-07-23T19:25:16;19.50;88.00
49242;DHT22;35079;52.704;13.814;2022-07-23T19:27:41;19.40;85.30
49242;DHT22;35079;52.704;13.814;2022-07-23T19:30:09;19.20;88.00
49242;DHT22;35079;52.704;13.814;2022-07-23T19:32:35;19.20;88.10
49242;DHT22;35079;52.704;13.814;2022-07-23T19:35:02;19.10;89.10
49242;DHT22;35079;52.704;13.814;2022-07-23T19:37:30;19.00;88.60
49242;DHT22;35079;52.704;13.814;2022-07-23T19:39:56;18.80;89.20
49242;DHT22;35079;52.704;13.814;2022-07-23T19:42:22;18.80;90.50
49242;DHT22;35079;52.704;13.814;2022-07-23T19:44:48;18.70;90.30
49242;DHT22;35079;52.704;13.814;2022-07-23T19:47:13;18.60;90.30
49242;DHT22;35079;52.704;13.814;2022-07-23T19:49:39;18.60;91.20
49242;DHT22;35079;52.704;13.814;2022-07-23T19:52:05;18.50;91.80
49242;DHT22;35079;52.704;13.814;2022-07-23T19:54:31;18.30;91.80
49242;DHT22;35079;52.704;13.814;2022-07-23T19:56:57;18.30;92.70
49242;DHT22;35079;52.704;13.814;2022-07-23T19:59:22;18.20;92.80
49242;DHT22;35079;52.704;13.814;2022-07-23T20:01:48;18.20;91.90
49242;DHT22;35079;52.704;13.814;2022-07-23T20:04:14;18.10;91.10
49242;DHT22;35079;52.704;13.814;2022-07-23T20:06:39;18.10;92.30
49242;DHT22;35079;52.704;13.814;2022-07-23T20:09:05;17.90;93.40
49242;DHT22;35079;52.704;13.814;2022-07-23T20:11:31;17.90;92.90
49242;DHT22;35079;52.704;13.814;2022-07-23T20:13:58;17.80;92.80
49242;DHT22;35079;52.704;13.814;2022-07-23T20:16:24;17.70;92.60
49242;DHT22;35079;52.704;13.814;2022-07-23T20:18:50;17.70;92.40
49242;DHT22;35079;52.704;13.814;2022-07-23T20:21:15;17.60;93.20
49242;DHT22;35079;52.704;13.814;2022-07-23T20:23:41;17.50;92.60
49242;DHT22;35079;52.704;13.814;2022-07-23T20:26:07;17.50;91.90
49242;DHT22;35079;52.704;13.814;2022-07-23T20:28:33;17.40;92.30
49242;DHT22;35079;52.704;13.814;2022-07-23T20:30:58;17.40;92.70
49242;DHT22;35079;52.704;13.814;2022-07-23T20:33:30;17.40;93.00
49242;DHT22;35079;52.704;13.814;2022-07-23T20:35:56;17.30;93.20
49242;DHT22;35079;52.704;13.814;2022-07-23T20:38:23;17.30;93.10
49242;DHT22;35079;52.704;13.814;2022-07-23T20:40:48;17.20;94.40
49242;DHT22;35079;52.704;13.814;2022-07-23T20:43:14;17.20;94.40
49242;DHT22;35079;52.704;13.814;2022-07-23T20:45:41;17.10;93.90
49242;DHT22;35079;52.704;13.814;2022-07-23T20:48:08;17.20;95.10
49242;DHT22;35079;52.704;13.814;2022-07-23T20:50:34;17.10;94.90
49242;DHT22;35079;52.704;13.814;2022-07-23T20:53:02;17.10;94.80
49242;DHT22;35079;52.704;13.814;2022-07-23T20:55:29;17.10;95.40
49242;DHT22;35079;52.704;13.814;2022-07-23T20:58:13;16.90;95.00
49242;DHT22;35079;52.704;13.814;2022-07-23T21:00:38;16.80;95.60
49242;DHT22;35079;52.704;13.814;2022-07-23T21:03:07;16.90;94.80
49242;DHT22;35079;52.704;13.814;2022-07-23T21:05:34;16.70;94.70
49242;DHT22;35079;52.704;13.814;2022-07-23T21:08:02;16.70;95.10
49242;DHT22;35079;52.704;13.814;2022-07-23T21:10:38;16.70;95.60
49242;DHT22;35079;52.704;13.814;2022-07-23T21:27:16;16.30;95.80
49242;DHT22;35079;52.704;13.814;2022-07-23T21:33:38;16.20;96.70
49242;DHT22;35079;52.704;13.814;2022-07-23T21:46:45;15.90;98.00
49242;DHT22;35079;52.704;13.814;2022-07-23T22:06:18;15.60;99.90
49242;DHT22;35079;52.704;13.814;2022-07-23T22:08:44;15.50;99.90
49242;DHT22;35079;52.704;13.814;2022-07-23T22:15:28;15.40;99.90
49242;DHT22;35079;52.704;13.814;2022-07-23T22:21:44;15.40;99.90
49242;DHT22;35079;52.704;13.814;2022-07-23T22:41:21;15.30;99.90
49242;DHT22;35079;52.704;13.814;2022-07-23T22:43:56;15.20;99.90
49242;DHT22;35079;52.704;13.814;2022-07-23T22:46:28;15.20;99.90
49242;DHT22;35079;52.704;13.814;2022-07-23T22:49:34;15.20;99.90
49242;DHT22;35079;52.704;13.814;2022-07-23T22:52:05;15.10;99.90
49242;DHT22;35079;52.704;13.814;2022-07-23T22:54:34;15.10;99.90
49242;DHT22;35079;52.704;13.814;2022-07-23T22:56:59;15.20;99.90
49242;DHT22;35079;52.704;13.814;2022-07-23T22:59:28;15.00;99.90
49242;DHT22;35079;52.704;13.814;2022-07-23T23:02:13;15.00;99.90
49242;DHT22;35079;52.704;13.814;2022-07-23T23:04:58;15.00;99.90
49242;DHT22;35079;52.704;13.814;2022-07-23T23:07:23;14.90;99.90
49242;DHT22;35079;52.704;13.814;2022-07-23T23:09:59;14.90;99.90
49242;DHT22;35079;52.704;13.814;2022-07-23T23:12:25;14.80;99.90
49242;DHT22;35079;52.704;13.814;2022-07-23T23:14:51;14.90;99.90
49242;DHT22;35079;52.704;13.814;2022-07-23T23:17:17;14.80;99.90
49242;DHT22;35079;52.704;13.814;2022-07-23T23:19:42;14.80;99.90
49242;DHT22;35079;52.704;13.814;2022-07-23T23:22:08;14.80;99.90
49242;DHT22;35079;52.704;13.814;2022-07-23T23:24:34;14.70;99.90
49242;DHT22;35079;52.704;13.814;2022-07-23T23:27:03;14.70;99.90
49242;DHT22;35079;52.704;13.814;2022-07-23T23:29:29;14.70;99.90
49242;DHT22;35079;52.704;13.814;2022-07-23T23:31:54;14.70;99.90
49242;DHT22;35079;52.704;13.814;2022-07-23T23:34:22;14.70;99.90
49242;DHT22;35079;52.704;13.814;2022-07-23T23:36:47;14.70;99.90
49242;DHT22;35079;52.704;13.814;2022-07-23T23:39:13;14.80;99.90